sensor_id;sensor_type;location;lat;lon;timestamp;P1;durP1;ratioP1;P2;durP2;ratioP2
64795;SDS011;51229;51.980;6.722;2023-04-01T00:01:45;7.25;;;1.85;;
64795;SDS011;51229;51.980;6.722;2023-04-01T00:04:11;3.42;;;1.90;;
64795;SDS011;51229;51.980;6.722;2023-04-01T00:06:37;4.72;;;1.58;;
64795;SDS011;51229;51.980;6.722;2023-04-01T00:09:03;6.60;;;2.17;;
64795;SDS011;51229;51.980;6.722;2023-04-01T00:11:28;5.50;;;1.85;;
64795;SDS011;51229;51.980;6.722;2023-04-01T00:13:54;4.53;;;1.90;;
64795;SDS011;51229;51.980;6.722;2023-04-01T00:16:20;4.97;;;1.58;;
64795;SDS011;51229;51.980;6.722;2023-04-01T00:18:46;4.65;;;1.70;;
64795;SDS011;51229;51.980;6.722;2023-04-01T00:21:12;4.13;;;1.80;;
64795;SDS011;51229;51.980;6.722;2023-04-01T00:23:38;5.55;;;1.75;;
64795;SDS011;51229;51.980;6.722;2023-04-01T00:26:04;5.78;;;2.10;;
64795;SDS011;51229;51.980;6.722;2023-04-01T00:28:30;5.28;;;2.10;;
64795;SDS011;51229;51.980;6.722;2023-04-01T00:30:56;5.78;;;1.95;;
64795;SDS011;51229;51.980;6.722;2023-04-01T00:33:22;4.78;;;1.98;;
64795;SDS011;51229;51.980;6.722;2023-04-01T00:35:48;5.35;;;1.85;;
64795;SDS011;51229;51.980;6.722;2023-04-01T00:38:13;6.03;;;2.20;;
64795;SDS011;51229;51.980;6.722;2023-04-01T00:40:43;5.28;;;2.00;;
64795;SDS011;51229;51.980;6.722;2023-04-01T00:43:19;3.13;;;1.70;;
64795;SDS011;51229;51.980;6.722;2023-04-01T00:45:46;7.70;;;2.55;;
64795;SDS011;51229;51.980;6.722;2023-04-01T00:48:18;4.47;;;1.90;;
64795;SDS011;51229;51.980;6.722;2023-04-01T00:51:29;5.32;;;2.03;;
64795;SDS011;51229;51.980;6.722;2023-04-01T00:53:40;5.30;;;2.03;;
64795;SDS011;51229;51.980;6.722;2023-04-01T00:58:38;4.60;;;1.65;;
64795;SDS011;51229;51.980;6.722;2023-04-01T01:01:08;7.70;;;2.08;;
64795;SDS011;51229;51.980;6.722;2023-04-01T01:03:35;5.28;;;1.80;;
64795;SDS011;51229;51.980;6.722;2023-04-01T01:11:42;5.18;;;1.75;;
64795;SDS011;51229;51.980;6.722;2023-04-01T01:14:34;5.00;;;1.70;;
64795;SDS011;51229;51.980;6.722;2023-04-01T01:17:13;4.65;;;1.70;;
64795;SDS011;51229;51.980;6.722;2023-04-01T01:19:48;3.63;;;1.30;;
64795;SDS011;51229;51.980;6.722;2023-04-01T01:25:37;3.45;;;1.48;;
64795;SDS011;51229;51.980;6.722;2023-04-01T01:33:53;3.30;;;1.52;;
64795;SDS011;51229;51.980;6.722;2023-04-01T01:36:36;3.13;;;1.40;;
64795;SDS011;51229;51.980;6.722;2023-04-01T01:39:08;3.80;;;1.50;;
64795;SDS011;51229;51.980;6.722;2023-04-01T01:41:35;5.03;;;1.40;;
64795;SDS011;51229;51.980;6.722;2023-04-01T01:44:05;4.20;;;1.95;;
64795;SDS011;51229;51.980;6.722;2023-04-01T01:46:33;3.85;;;1.40;;
64795;SDS011;51229;51.980;6.722;2023-04-01T01:48:59;3.72;;;1.30;;
64795;SDS011;51229;51.980;6.722;2023-04-01T01:51:27;2.92;;;1.38;;
64795;SDS011;51229;51.980;6.722;2023-04-01T01:53:54;3.28;;;1.55;;
64795;SDS011;51229;51.980;6.722;2023-04-01T01:56:23;5.25;;;1.85;;
64795;SDS011;51229;51.980;6.722;2023-04-01T01:58:55;3.33;;;1.60;;
64795;SDS011;51229;51.980;6.722;2023-04-01T02:01:29;2.55;;;1.40;;
64795;SDS011;51229;51.980;6.722;2023-04-01T02:04:04;5.00;;;1.80;;
64795;SDS011;51229;51.980;6.722;2023-04-01T02:06:32;3.42;;;1.65;;
64795;SDS011;51229;51.980;6.722;2023-04-01T02:09:03;5.43;;;2.55;;
64795;SDS011;51229;51.980;6.722;2023-04-01T02:11:46;5.90;;;1.83;;
64795;SDS011;51229;51.980;6.722;2023-04-01T02:14:20;4.15;;;1.63;;
64795;SDS011;51229;51.980;6.722;2023-04-01T02:17:35;3.97;;;1.70;;
64795;SDS011;51229;51.980;6.722;2023-04-01T02:22:38;4.05;;;2.17;;
64795;SDS011;51229;51.980;6.722;2023-04-01T02:25:08;5.03;;;1.92;;
64795;SDS011;51229;51.980;6.722;2023-04-01T02:27:39;4.80;;;2.30;;
64795;SDS011;51229;51.980;6.722;2023-04-01T02:30:08;3.78;;;2.25;;
64795;SDS011;51229;51.980;6.722;2023-04-01T02:32:34;7.13;;;2.75;;
64795;SDS011;51229;51.980;6.722;2023-04-01T02:35:04;5.93;;;2.53;;
64795;SDS011;51229;51.980;6.722;2023-04-01T02:37:32;5.93;;;2.70;;
64795;SDS011;51229;51.980;6.722;2023-04-01T02:40:02;4.32;;;2.53;;
64795;SDS011;51229;51.980;6.722;2023-04-01T02:42:29;4.90;;;2.60;;
64795;SDS011;51229;51.980;6.722;2023-04-01T02:44:55;4.25;;;2.40;;
64795;SDS011;51229;51.980;6.722;2023-04-01T02:47:21;5.63;;;2.50;;
64795;SDS011;51229;51.980;6.722;2023-04-01T02:49:46;6.97;;;2.78;;
64795;SDS011;51229;51.980;6.722;2023-04-01T02:52:12;3.83;;;2.08;;
64795;SDS011;51229;51.980;6.722;2023-04-01T02:54:38;5.97;;;2.42;;
64795;SDS011;51229;51.980;6.722;2023-04-01T02:57:03;5.55;;;2.67;;
64795;SDS011;51229;51.980;6.722;2023-04-01T02:59:29;5.85;;;2.78;;
64795;SDS011;51229;51.980;6.722;2023-04-01T03:01:55;5.15;;;2.58;;
64795;SDS011;51229;51.980;6.722;2023-04-01T03:04:20;6.22;;;2.58;;
64795;SDS011;51229;51.980;6.722;2023-04-01T03:06:46;6.00;;;2.85;;
64795;SDS011;51229;51.980;6.722;2023-04-01T03:09:12;6.22;;;2.90;;
64795;SDS011;51229;51.980;6.722;2023-04-01T03:11:37;5.72;;;2.60;;
64795;SDS011;51229;51.980;6.722;2023-04-01T03:14:03;5.03;;;2.95;;
64795;SDS011;51229;51.980;6.722;2023-04-01T03:16:29;5.55;;;2.78;;
64795;SDS011;51229;51.980;6.722;2023-04-01T03:18:55;5.40;;;2.83;;
64795;SDS011;51229;51.980;6.722;2023-04-01T03:21:24;5.97;;;2.67;;
64795;SDS011;51229;51.980;6.722;2023-04-01T03:23:49;4.78;;;2.13;;
64795;SDS011;51229;51.980;6.722;2023-04-01T03:26:15;5.68;;;2.88;;
64795;SDS011;51229;51.980;6.722;2023-04-01T03:28:42;5.68;;;2.75;;
64795;SDS011;51229;51.980;6.722;2023-04-01T03:31:07;5.25;;;2.90;;
64795;SDS011;51229;51.980;6.722;2023-04-01T03:33:40;5.33;;;2.70;;
64795;SDS011;51229;51.980;6.722;2023-04-01T03:36:05;7.30;;;3.20;;
64795;SDS011;51229;51.980;6.722;2023-04-01T03:38:33;7.47;;;3.50;;
64795;SDS011;51229;51.980;6.722;2023-04-01T03:40:59;6.78;;;3.50;;
64795;SDS011;51229;51.980;6.722;2023-04-01T03:43:25;9.75;;;3.45;;
64795;SDS011;51229;51.980;6.722;2023-04-01T03:45:51;6.38;;;3.30;;
64795;SDS011;51229;51.980;6.722;2023-04-01T03:48:17;7.03;;;3.60;;
64795;SDS011;51229;51.980;6.722;2023-04-01T03:50:44;5.38;;;2.92;;
64795;SDS011;51229;51.980;6.722;2023-04-01T03:53:10;6.13;;;3.30;;
64795;SDS011;51229;51.980;6.722;2023-04-01T03:55:39;7.07;;;3.30;;
64795;SDS011;51229;51.980;6.722;2023-04-01T03:58:05;8.38;;;3.60;;
64795;SDS011;51229;51.980;6.722;2023-04-01T04:00:32;5.43;;;2.92;;
64795;SDS011;51229;51.980;6.722;2023-04-01T04:02:59;5.53;;;2.88;;
64795;SDS011;51229;51.980;6.722;2023-04-01T04:05:30;6.22;;;3.50;;
64795;SDS011;51229;51.980;6.722;2023-04-01T04:07:56;7.15;;;3.15;;
64795;SDS011;51229;51.980;6.722;2023-04-01T04:10:22;6.30;;;3.38;;
64795;SDS011;51229;51.980;6.722;2023-04-01T04:12:50;6.70;;;3.60;;
64795;SDS011;51229;51.980;6.722;2023-04-01T04:15:16;7.43;;;3.35;;
64795;SDS011;51229;51.980;6.722;2023-04-01T04:17:43;5.88;;;3.13;;
64795;SDS011;51229;51.980;6.722;2023-04-01T04:20:10;6.35;;;3.35;;
64795;SDS011;51229;51.980;6.722;2023-04-01T04:22:36;6.57;;;3.50;;
64795;SDS011;51229;51.980;6.722;2023-04-01T04:25:06;7.60;;;3.80;;
64795;SDS011;51229;51.980;6.722;2023-04-01T04:27:32;6.65;;;3.30;;
64795;SDS011;51229;51.980;6.722;2023-04-01T04:30:07;6.30;;;3.33;;
64795;SDS011;51229;51.980;6.722;2023-04-01T04:32:34;6.15;;;3.58;;
64795;SDS011;51229;51.980;6.722;2023-04-01T04:35:00;6.15;;;3.10;;
64795;SDS011;51229;51.980;6.722;2023-04-01T04:37:26;6.97;;;3.63;;
64795;SDS011;51229;51.980;6.722;2023-04-01T04:39:52;6.60;;;3.03;;
64795;SDS011;51229;51.980;6.722;2023-04-01T04:42:18;7.25;;;3.33;;
64795;SDS011;51229;51.980;6.722;2023-04-01T04:44:44;7.07;;;3.33;;
64795;SDS011;51229;51.980;6.722;2023-04-01T04:47:10;7.18;;;3.60;;
64795;SDS011;51229;51.980;6.722;2023-04-01T04:49:36;7.53;;;3.45;;
64795;SDS011;51229;51.980;6.722;2023-04-01T04:52:06;6.38;;;3.15;;
64795;SDS011;51229;51.980;6.722;2023-04-01T04:54:31;6.03;;;3.22;;
64795;SDS011;51229;51.980;6.722;2023-04-01T04:56:59;7.85;;;3.65;;
64795;SDS011;51229;51.980;6.722;2023-04-01T04:59:28;6.07;;;3.63;;
64795;SDS011;51229;51.980;6.722;2023-04-01T05:02:16;7.78;;;3.90;;
64795;SDS011;51229;51.980;6.722;2023-04-01T05:04:42;6.75;;;3.72;;
64795;SDS011;51229;51.980;6.722;2023-04-01T05:07:09;6.75;;;3.33;;
64795;SDS011;51229;51.980;6.722;2023-04-01T05:09:35;7.40;;;3.35;;
64795;SDS011;51229;51.980;6.722;2023-04-01T05:12:01;6.55;;;3.40;;
64795;SDS011;51229;51.980;6.722;2023-04-01T05:14:35;6.90;;;3.75;;
64795;SDS011;51229;51.980;6.722;2023-04-01T05:17:10;6.70;;;3.50;;
64795;SDS011;51229;51.980;6.722;2023-04-01T05:19:38;5.72;;;2.95;;
64795;SDS011;51229;51.980;6.722;2023-04-01T05:22:04;6.90;;;3.35;;
64795;SDS011;51229;51.980;6.722;2023-04-01T05:24:31;7.40;;;3.60;;
64795;SDS011;51229;51.980;6.722;2023-04-01T05:26:57;8.18;;;4.30;;
64795;SDS011;51229;51.980;6.722;2023-04-01T05:29:24;7.45;;;3.78;;
64795;SDS011;51229;51.980;6.722;2023-04-01T05:31:57;8.57;;;4.20;;
64795;SDS011;51229;51.980;6.722;2023-04-01T05:34:22;9.10;;;4.07;;
64795;SDS011;51229;51.980;6.722;2023-04-01T05:36:48;7.50;;;3.67;;
64795;SDS011;51229;51.980;6.722;2023-04-01T05:39:18;8.68;;;3.92;;
64795;SDS011;51229;51.980;6.722;2023-04-01T05:41:44;7.45;;;3.80;;
64795;SDS011;51229;51.980;6.722;2023-04-01T05:44:11;8.80;;;4.40;;
64795;SDS011;51229;51.980;6.722;2023-04-01T05:46:57;7.75;;;4.00;;
64795;SDS011;51229;51.980;6.722;2023-04-01T05:49:25;7.28;;;4.25;;
64795;SDS011;51229;51.980;6.722;2023-04-01T05:51:50;8.75;;;4.20;;
64795;SDS011;51229;51.980;6.722;2023-04-01T05:54:17;9.43;;;4.93;;
64795;SDS011;51229;51.980;6.722;2023-04-01T05:56:44;9.50;;;4.85;;
64795;SDS011;51229;51.980;6.722;2023-04-01T05:59:10;9.30;;;4.53;;
64795;SDS011;51229;51.980;6.722;2023-04-01T06:01:37;8.77;;;4.20;;
64795;SDS011;51229;51.980;6.722;2023-04-01T06:04:03;9.30;;;4.18;;
64795;SDS011;51229;51.980;6.722;2023-04-01T06:06:30;8.23;;;3.85;;
64795;SDS011;51229;51.980;6.722;2023-04-01T06:09:15;9.95;;;4.15;;
64795;SDS011;51229;51.980;6.722;2023-04-01T06:11:56;8.77;;;4.15;;
64795;SDS011;51229;51.980;6.722;2023-04-01T06:22:47;7.30;;;3.58;;
64795;SDS011;51229;51.980;6.722;2023-04-01T06:28:39;9.13;;;4.00;;
64795;SDS011;51229;51.980;6.722;2023-04-01T06:31:16;7.57;;;3.72;;
64795;SDS011;51229;51.980;6.722;2023-04-01T06:37:23;7.78;;;3.40;;
64795;SDS011;51229;51.980;6.722;2023-04-01T06:46:47;5.50;;;2.58;;
64795;SDS011;51229;51.980;6.722;2023-04-01T06:52:48;6.70;;;2.97;;
64795;SDS011;51229;51.980;6.722;2023-04-01T06:55:51;6.38;;;3.13;;
64795;SDS011;51229;51.980;6.722;2023-04-01T06:58:35;6.95;;;3.10;;
64795;SDS011;51229;51.980;6.722;2023-04-01T07:01:09;7.10;;;3.22;;
64795;SDS011;51229;51.980;6.722;2023-04-01T07:03:47;7.00;;;3.17;;
64795;SDS011;51229;51.980;6.722;2023-04-01T07:09:09;6.43;;;3.08;;
64795;SDS011;51229;51.980;6.722;2023-04-01T07:12:51;6.65;;;3.20;;
64795;SDS011;51229;51.980;6.722;2023-04-01T07:17:43;7.07;;;3.13;;
64795;SDS011;51229;51.980;6.722;2023-04-01T07:20:13;7.45;;;3.50;;
64795;SDS011;51229;51.980;6.722;2023-04-01T07:22:48;7.05;;;3.60;;
64795;SDS011;51229;51.980;6.722;2023-04-01T07:25:31;8.10;;;4.10;;
64795;SDS011;51229;51.980;6.722;2023-04-01T07:28:26;6.47;;;3.30;;
64795;SDS011;51229;51.980;6.722;2023-04-01T07:31:13;7.05;;;3.53;;
64795;SDS011;51229;51.980;6.722;2023-04-01T07:33:57;8.57;;;3.85;;
64795;SDS011;51229;51.980;6.722;2023-04-01T07:47:28;7.68;;;3.85;;
64795;SDS011;51229;51.980;6.722;2023-04-01T07:55:48;9.07;;;3.50;;
64795;SDS011;51229;51.980;6.722;2023-04-01T07:58:44;6.60;;;2.95;;
64795;SDS011;51229;51.980;6.722;2023-04-01T08:04:25;7.13;;;3.20;;
64795;SDS011;51229;51.980;6.722;2023-04-01T08:07:09;7.50;;;3.53;;
64795;SDS011;51229;51.980;6.722;2023-04-01T08:09:55;8.00;;;3.63;;
64795;SDS011;51229;51.980;6.722;2023-04-01T08:16:25;9.23;;;3.70;;
64795;SDS011;51229;51.980;6.722;2023-04-01T08:19:15;9.02;;;3.92;;
64795;SDS011;51229;51.980;6.722;2023-04-01T08:21:45;10.75;;;4.22;;
64795;SDS011;51229;51.980;6.722;2023-04-01T08:24:22;14.93;;;5.68;;
64795;SDS011;51229;51.980;6.722;2023-04-01T08:26:57;11.90;;;5.40;;
64795;SDS011;51229;51.980;6.722;2023-04-01T08:29:26;10.40;;;4.85;;
64795;SDS011;51229;51.980;6.722;2023-04-01T08:32:22;10.85;;;4.95;;
64795;SDS011;51229;51.980;6.722;2023-04-01T08:35:00;11.25;;;5.47;;
64795;SDS011;51229;51.980;6.722;2023-04-01T08:37:35;12.82;;;5.25;;
64795;SDS011;51229;51.980;6.722;2023-04-01T08:46:42;10.00;;;4.72;;
64795;SDS011;51229;51.980;6.722;2023-04-01T09:03:25;14.25;;;5.53;;
64795;SDS011;51229;51.980;6.722;2023-04-01T09:06:29;13.45;;;5.88;;
64795;SDS011;51229;51.980;6.722;2023-04-01T09:23:04;10.73;;;4.18;;
64795;SDS011;51229;51.980;6.722;2023-04-01T09:37:21;11.60;;;5.60;;
64795;SDS011;51229;51.980;6.722;2023-04-01T09:40:08;19.55;;;9.05;;
64795;SDS011;51229;51.980;6.722;2023-04-01T09:42:41;11.32;;;5.30;;
64795;SDS011;51229;51.980;6.722;2023-04-01T09:48:19;12.20;;;5.35;;
64795;SDS011;51229;51.980;6.722;2023-04-01T10:14:50;9.05;;;4.07;;
64795;SDS011;51229;51.980;6.722;2023-04-01T10:34:56;11.63;;;4.60;;
64795;SDS011;51229;51.980;6.722;2023-04-01T10:37:37;7.45;;;3.20;;
64795;SDS011;51229;51.980;6.722;2023-04-01T10:40:25;6.68;;;3.15;;
64795;SDS011;51229;51.980;6.722;2023-04-01T10:52:53;14.85;;;7.28;;
64795;SDS011;51229;51.980;6.722;2023-04-01T10:56:32;30.13;;;11.18;;
64795;SDS011;51229;51.980;6.722;2023-04-01T10:59:15;9.02;;;4.45;;
64795;SDS011;51229;51.980;6.722;2023-04-01T11:05:46;8.27;;;3.63;;
64795;SDS011;51229;51.980;6.722;2023-04-01T11:40:20;7.45;;;3.67;;
64795;SDS011;51229;51.980;6.722;2023-04-01T11:46:15;6.95;;;3.25;;
64795;SDS011;51229;51.980;6.722;2023-04-01T11:49:00;6.43;;;3.53;;
64795;SDS011;51229;51.980;6.722;2023-04-01T11:54:34;7.68;;;3.60;;
64795;SDS011;51229;51.980;6.722;2023-04-01T12:09:08;10.18;;;4.32;;
64795;SDS011;51229;51.980;6.722;2023-04-01T12:18:18;9.38;;;4.60;;
64795;SDS011;51229;51.980;6.722;2023-04-01T12:20:49;6.57;;;3.80;;
64795;SDS011;51229;51.980;6.722;2023-04-01T12:29:18;6.25;;;3.40;;
64795;SDS011;51229;51.980;6.722;2023-04-01T12:34:49;5.30;;;2.90;;
64795;SDS011;51229;51.980;6.722;2023-04-01T12:38:07;6.05;;;3.00;;
64795;SDS011;51229;51.980;6.722;2023-04-01T12:43:23;5.65;;;3.05;;
64795;SDS011;51229;51.980;6.722;2023-04-01T12:51:20;4.15;;;2.10;;
64795;SDS011;51229;51.980;6.722;2023-04-01T13:02:40;4.50;;;2.70;;
64795;SDS011;51229;51.980;6.722;2023-04-01T13:05:22;4.38;;;2.60;;
64795;SDS011;51229;51.980;6.722;2023-04-01T13:10:53;3.25;;;1.67;;
64795;SDS011;51229;51.980;6.722;2023-04-01T13:16:39;4.43;;;2.22;;
64795;SDS011;51229;51.980;6.722;2023-04-01T13:22:10;5.78;;;2.90;;
64795;SDS011;51229;51.980;6.722;2023-04-01T13:30:02;4.85;;;2.42;;
64795;SDS011;51229;51.980;6.722;2023-04-01T13:40:58;6.05;;;3.40;;
64795;SDS011;51229;51.980;6.722;2023-04-01T13:43:51;7.88;;;3.88;;
64795;SDS011;51229;51.980;6.722;2023-04-01T13:57:05;3.97;;;2.10;;
64795;SDS011;51229;51.980;6.722;2023-04-01T14:11:32;4.43;;;2.17;;
64795;SDS011;51229;51.980;6.722;2023-04-01T14:17:23;4.55;;;2.40;;
64795;SDS011;51229;51.980;6.722;2023-04-01T14:37:32;5.13;;;2.83;;
64795;SDS011;51229;51.980;6.722;2023-04-01T14:43:16;11.27;;;6.95;;
64795;SDS011;51229;51.980;6.722;2023-04-01T14:51:53;6.47;;;3.47;;
64795;SDS011;51229;51.980;6.722;2023-04-01T14:54:20;5.68;;;3.70;;
64795;SDS011;51229;51.980;6.722;2023-04-01T14:57:10;5.60;;;3.78;;
64795;SDS011;51229;51.980;6.722;2023-04-01T15:00:19;6.10;;;3.40;;
64795;SDS011;51229;51.980;6.722;2023-04-01T15:14:30;4.22;;;2.13;;
64795;SDS011;51229;51.980;6.722;2023-04-01T15:20:22;4.07;;;2.08;;
64795;SDS011;51229;51.980;6.722;2023-04-01T15:23:02;3.75;;;2.10;;
64795;SDS011;51229;51.980;6.722;2023-04-01T15:34:21;4.40;;;2.10;;
64795;SDS011;51229;51.980;6.722;2023-04-01T15:40:11;4.80;;;2.47;;
64795;SDS011;51229;51.980;6.722;2023-04-01T15:43:13;5.38;;;2.75;;
64795;SDS011;51229;51.980;6.722;2023-04-01T15:57:50;19.83;;;11.27;;
64795;SDS011;51229;51.980;6.722;2023-04-01T16:03:26;8.35;;;4.45;;
64795;SDS011;51229;51.980;6.722;2023-04-01T16:20:57;5.00;;;3.00;;
64795;SDS011;51229;51.980;6.722;2023-04-01T16:23:20;5.80;;;2.90;;
64795;SDS011;51229;51.980;6.722;2023-04-01T16:25:59;5.07;;;3.00;;
64795;SDS011;51229;51.980;6.722;2023-04-01T16:34:00;4.78;;;2.90;;
64795;SDS011;51229;51.980;6.722;2023-04-01T16:44:31;3.67;;;2.35;;
64795;SDS011;51229;51.980;6.722;2023-04-01T16:48:01;3.90;;;2.50;;
64795;SDS011;51229;51.980;6.722;2023-04-01T16:50:22;3.80;;;2.53;;
64795;SDS011;51229;51.980;6.722;2023-04-01T16:53:01;4.13;;;2.35;;
64795;SDS011;51229;51.980;6.722;2023-04-01T16:55:49;3.65;;;2.20;;
64795;SDS011;51229;51.980;6.722;2023-04-01T16:58:20;3.63;;;2.30;;
64795;SDS011;51229;51.980;6.722;2023-04-01T17:00:55;3.67;;;2.30;;
64795;SDS011;51229;51.980;6.722;2023-04-01T17:11:19;3.20;;;2.00;;
64795;SDS011;51229;51.980;6.722;2023-04-01T17:23:24;2.92;;;1.83;;
64795;SDS011;51229;51.980;6.722;2023-04-01T17:26:06;3.78;;;2.30;;
64795;SDS011;51229;51.980;6.722;2023-04-01T17:31:30;3.53;;;2.10;;
64795;SDS011;51229;51.980;6.722;2023-04-01T17:39:49;3.40;;;2.10;;
64795;SDS011;51229;51.980;6.722;2023-04-01T17:42:41;3.25;;;2.10;;
64795;SDS011;51229;51.980;6.722;2023-04-01T17:50:53;3.40;;;1.98;;
64795;SDS011;51229;51.980;6.722;2023-04-01T17:53:42;3.22;;;1.67;;
64795;SDS011;51229;51.980;6.722;2023-04-01T17:56:22;3.13;;;1.77;;
64795;SDS011;51229;51.980;6.722;2023-04-01T17:59:05;3.03;;;1.50;;
64795;SDS011;51229;51.980;6.722;2023-04-01T18:13:41;4.15;;;1.63;;
64795;SDS011;51229;51.980;6.722;2023-04-01T18:16:34;3.80;;;1.85;;
64795;SDS011;51229;51.980;6.722;2023-04-01T18:22:21;2.70;;;1.60;;
64795;SDS011;51229;51.980;6.722;2023-04-01T18:25:01;6.20;;;1.80;;
64795;SDS011;51229;51.980;6.722;2023-04-01T18:27:41;2.00;;;1.35;;
64795;SDS011;51229;51.980;6.722;2023-04-01T18:30:15;3.70;;;1.58;;
64795;SDS011;51229;51.980;6.722;2023-04-01T18:32:52;3.30;;;1.70;;
64795;SDS011;51229;51.980;6.722;2023-04-01T18:35:58;2.90;;;1.60;;
64795;SDS011;51229;51.980;6.722;2023-04-01T18:44:51;2.67;;;1.60;;
64795;SDS011;51229;51.980;6.722;2023-04-01T18:50:21;3.38;;;1.52;;
64795;SDS011;51229;51.980;6.722;2023-04-01T18:52:56;2.63;;;1.60;;
64795;SDS011;51229;51.980;6.722;2023-04-01T18:55:41;2.72;;;1.70;;
64795;SDS011;51229;51.980;6.722;2023-04-01T18:58:20;2.80;;;1.70;;
64795;SDS011;51229;51.980;6.722;2023-04-01T19:01:19;2.78;;;1.60;;
64795;SDS011;51229;51.980;6.722;2023-04-01T19:06:20;3.60;;;2.08;;
64795;SDS011;51229;51.980;6.722;2023-04-01T19:14:45;5.78;;;3.63;;
64795;SDS011;51229;51.980;6.722;2023-04-01T19:17:19;2.83;;;1.90;;
64795;SDS011;51229;51.980;6.722;2023-04-01T19:42:53;2.95;;;1.65;;
64795;SDS011;51229;51.980;6.722;2023-04-01T19:45:46;2.88;;;1.70;;
64795;SDS011;51229;51.980;6.722;2023-04-01T20:01:41;2.50;;;1.58;;
64795;SDS011;51229;51.980;6.722;2023-04-01T20:04:17;2.53;;;1.63;;
64795;SDS011;51229;51.980;6.722;2023-04-01T20:07:12;2.33;;;1.60;;
64795;SDS011;51229;51.980;6.722;2023-04-01T20:10:29;2.55;;;1.67;;
64795;SDS011;51229;51.980;6.722;2023-04-01T20:12:57;3.08;;;1.80;;
64795;SDS011;51229;51.980;6.722;2023-04-01T20:15:39;2.40;;;1.55;;
64795;SDS011;51229;51.980;6.722;2023-04-01T20:23:43;3.00;;;1.80;;
64795;SDS011;51229;51.980;6.722;2023-04-01T20:26:31;2.53;;;1.73;;
64795;SDS011;51229;51.980;6.722;2023-04-01T20:29:40;3.55;;;2.15;;
64795;SDS011;51229;51.980;6.722;2023-04-01T20:32:16;3.13;;;1.80;;
64795;SDS011;51229;51.980;6.722;2023-04-01T20:34:59;3.05;;;2.00;;
64795;SDS011;51229;51.980;6.722;2023-04-01T20:37:40;2.92;;;1.80;;
64795;SDS011;51229;51.980;6.722;2023-04-01T20:43:23;3.30;;;2.00;;
64795;SDS011;51229;51.980;6.722;2023-04-01T20:45:56;3.70;;;2.72;;
64795;SDS011;51229;51.980;6.722;2023-04-01T21:00:00;4.60;;;2.55;;
64795;SDS011;51229;51.980;6.722;2023-04-01T21:05:41;3.90;;;2.40;;
64795;SDS011;51229;51.980;6.722;2023-04-01T21:08:28;3.60;;;2.30;;
64795;SDS011;51229;51.980;6.722;2023-04-01T21:11:18;4.68;;;2.70;;
64795;SDS011;51229;51.980;6.722;2023-04-01T21:22:25;4.47;;;3.20;;
64795;SDS011;51229;51.980;6.722;2023-04-01T21:27:38;4.40;;;2.90;;
64795;SDS011;51229;51.980;6.722;2023-04-01T21:39:26;4.70;;;3.17;;
64795;SDS011;51229;51.980;6.722;2023-04-01T21:50:44;5.00;;;3.30;;
64795;SDS011;51229;51.980;6.722;2023-04-01T21:59:19;4.13;;;2.58;;
64795;SDS011;51229;51.980;6.722;2023-04-01T22:07:40;3.88;;;2.53;;
64795;SDS011;51229;51.980;6.722;2023-04-01T22:10:34;4.30;;;2.53;;
64795;SDS011;51229;51.980;6.722;2023-04-01T22:13:23;4.03;;;2.40;;
64795;SDS011;51229;51.980;6.722;2023-04-01T22:18:52;4.03;;;2.63;;
64795;SDS011;51229;51.980;6.722;2023-04-01T22:21:40;4.03;;;2.40;;
64795;SDS011;51229;51.980;6.722;2023-04-01T22:32:41;3.28;;;2.20;;
64795;SDS011;51229;51.980;6.722;2023-04-01T22:35:13;5.78;;;3.38;;
64795;SDS011;51229;51.980;6.722;2023-04-01T22:37:56;3.97;;;2.53;;
64795;SDS011;51229;51.980;6.722;2023-04-01T22:40:34;4.97;;;2.85;;
64795;SDS011;51229;51.980;6.722;2023-04-01T22:45:44;5.22;;;3.40;;
64795;SDS011;51229;51.980;6.722;2023-04-01T22:48:52;3.75;;;2.65;;
64795;SDS011;51229;51.980;6.722;2023-04-01T22:51:42;4.05;;;2.97;;
64795;SDS011;51229;51.980;6.722;2023-04-01T22:54:32;4.50;;;3.10;;
64795;SDS011;51229;51.980;6.722;2023-04-01T22:57:10;6.15;;;3.97;;
64795;SDS011;51229;51.980;6.722;2023-04-01T22:59:58;5.13;;;3.40;;
64795;SDS011;51229;51.980;6.722;2023-04-01T23:05:58;4.93;;;3.53;;
64795;SDS011;51229;51.980;6.722;2023-04-01T23:08:41;6.57;;;3.60;;
64795;SDS011;51229;51.980;6.722;2023-04-01T23:11:20;5.30;;;2.83;;
64795;SDS011;51229;51.980;6.722;2023-04-01T23:16:35;6.35;;;4.63;;
64795;SDS011;51229;51.980;6.722;2023-04-01T23:19:17;7.13;;;4.45;;
64795;SDS011;51229;51.980;6.722;2023-04-01T23:21:49;6.03;;;3.70;;
64795;SDS011;51229;51.980;6.722;2023-04-01T23:24:28;4.78;;;2.88;;
64795;SDS011;51229;51.980;6.722;2023-04-01T23:27:03;5.47;;;3.00;;
64795;SDS011;51229;51.980;6.722;2023-04-01T23:29:51;5.13;;;3.22;;
64795;SDS011;51229;51.980;6.722;2023-04-01T23:32:26;5.75;;;3.83;;
64795;SDS011;51229;51.980;6.722;2023-04-01T23:34:56;5.30;;;2.95;;
64795;SDS011;51229;51.980;6.722;2023-04-01T23:37:24;5.32;;;3.00;;
64795;SDS011;51229;51.980;6.722;2023-04-01T23:39:52;5.07;;;3.15;;
64795;SDS011;51229;51.980;6.722;2023-04-01T23:42:23;5.60;;;3.90;;
64795;SDS011;51229;51.980;6.722;2023-04-01T23:45:30;6.07;;;3.67;;
64795;SDS011;51229;51.980;6.722;2023-04-01T23:47:49;5.85;;;3.42;;
64795;SDS011;51229;51.980;6.722;2023-04-01T23:50:21;5.95;;;3.55;;
64795;SDS011;51229;51.980;6.722;2023-04-01T23:53:00;5.55;;;3.28;;
64795;SDS011;51229;51.980;6.722;2023-04-01T23:55:32;6.00;;;3.30;;
